Time,TemperatureF,DewpointF,PressureIn,WindDirection,WindDirectionDegrees,WindSpeedMPH,WindSpeedGustMPH,Humidity,HourlyPrecipIn,Conditions,Clouds,dailyrainin,SolarRadiationWatts/m^2,SoftwareType,DateUTC
2013-07-15 00:21:00,50.0,41.0,-100.00,NE,52,2.0,4.0,71,0.00,,,0.00,0.000000,,2013-07-15 07:21:00,
2013-07-15 00:32:00,50.0,41.0,-100.00,NE,52,2.0,4.0,71,0.00,,,0.00,0.000000,,2013-07-15 07:32:00,
2013-07-15 00:53:00,49.0,39.0,-100.00,NE,40,2.0,3.0,69,0.00,,,-99.99,0.000000,,2013-07-15 07:53:00,
2013-07-15 01:22:00,49.0,39.0,-100.00,NE,40,2.0,3.0,69,0.00,,,-99.99,0.000000,,2013-07-15 08:22:00,
2013-07-15 01:32:00,49.0,39.0,-100.00,NE,40,2.0,3.0,69,0.00,,,-99.99,0.000000,,2013-07-15 08:32:00,
2013-07-15 01:43:00,49.0,39.0,-100.00,NE,40,2.0,3.0,69,0.00,,,-99.99,0.000000,,2013-07-15 08:43:00,
2013-07-15 02:11:00,47.0,37.0,-100.00,East,85,1.0,3.0,68,0.00,,,0.00,0.000000,,2013-07-15 09:11:00,
2013-07-15 02:22:00,47.0,37.0,-100.00,East,85,1.0,3.0,68,0.00,,,0.00,0.000000,,2013-07-15 09:22:00,
2013-07-15 02:32:00,47.0,37.0,-100.00,East,85,1.0,3.0,68,0.00,,,0.00,0.000000,,2013-07-15 09:32:00,
2013-07-15 02:42:00,47.0,37.0,-100.00,East,85,1.0,3.0,68,0.00,,,0.00,0.000000,,2013-07-15 09:42:00,
2013-07-15 02:52:00,47.0,37.0,-100.00,East,85,1.0,3.0,68,0.00,,,0.00,0.000000,,2013-07-15 09:52:00,
2013-07-15 03:11:00,46.0,38.0,-100.00,SE,142,1.0,2.0,73,0.00,,,0.00,0.000000,,2013-07-15 10:11:00,
2013-07-15 03:21:00,46.0,38.0,-100.00,SE,142,1.0,2.0,73,0.00,,,0.00,0.000000,,2013-07-15 10:21:00,
2013-07-15 03:32:00,46.0,38.0,-100.00,SE,142,1.0,2.0,73,0.00,,,0.00,0.000000,,2013-07-15 10:32:00,
2013-07-15 03:52:00,46.0,38.0,-100.00,SE,142,1.0,2.0,73,0.00,,,0.00,0.000000,,2013-07-15 10:52:00,
2013-07-15 04:11:00,45.0,39.0,-100.00,SE,141,1.0,2.0,78,0.00,,,0.00,0.000000,,2013-07-15 11:11:00,
2013-07-15 04:22:00,45.0,39.0,-100.00,SE,141,1.0,2.0,78,0.00,,,0.00,0.000000,,2013-07-15 11:22:00,
2013-07-15 05:11:00,43.0,38.0,-100.00,ESE,109,1.0,2.0,83,0.00,,,0.00,0.000000,,2013-07-15 12:11:00,
2013-07-15 05:22:00,43.0,38.0,-100.00,ESE,109,1.0,2.0,83,0.00,,,0.00,0.000000,,2013-07-15 12:22:00,
2013-07-15 05:32:00,43.0,38.0,-100.00,ESE,109,1.0,2.0,83,0.00,,,0.00,0.000000,,2013-07-15 12:32:00,
2013-07-15 06:22:00,44.0,40.0,-100.00,SE,134,1.0,2.0,85,0.00,,,0.00,2.000000,,2013-07-15 13:22:00,
2013-07-15 06:43:00,44.0,40.0,-100.00,SE,134,1.0,2.0,85,0.00,,,0.00,2.000000,,2013-07-15 13:43:00,
2013-07-15 06:53:00,45.0,41.0,-100.00,SSE,147,1.0,2.0,86,0.00,,,0.00,15.000000,,2013-07-15 13:53:00,
2013-07-15 07:22:00,45.0,41.0,-100.00,SSE,147,1.0,2.0,86,0.00,,,0.00,15.000000,,2013-07-15 14:22:00,
2013-07-15 07:33:00,45.0,41.0,-100.00,SSE,147,1.0,2.0,86,0.00,,,0.00,15.000000,,2013-07-15 14:33:00,
2013-07-15 07:42:00,45.0,41.0,-100.00,SSE,147,1.0,2.0,86,0.00,,,0.00,15.000000,,2013-07-15 14:42:00,
2013-07-15 08:24:00,50.0,43.0,-100.00,NW,316,1.0,3.0,77,0.00,,,0.00,68.000000,,2013-07-15 15:24:00,
2013-07-15 08:44:00,50.0,43.0,-100.00,NW,316,1.0,3.0,77,0.00,,,0.00,68.000000,,2013-07-15 15:44:00,
2013-07-15 09:24:00,59.0,42.0,-100.00,ENE,77,1.0,4.0,54,0.00,,,0.00,192.000000,,2013-07-15 16:24:00,
2013-07-15 09:32:00,59.0,42.0,-100.00,ENE,77,1.0,4.0,54,0.00,,,0.00,192.000000,,2013-07-15 16:32:00,
2013-07-15 09:44:00,59.0,42.0,-100.00,ENE,77,1.0,4.0,54,0.00,,,0.00,192.000000,,2013-07-15 16:44:00,
2013-07-15 09:52:00,59.0,42.0,-100.00,ENE,77,1.0,4.0,54,0.00,,,0.00,192.000000,,2013-07-15 16:52:00,
2013-07-15 10:13:00,66.0,45.0,-100.00,NNE,27,2.0,5.0,46,0.00,,,0.00,351.000000,,2013-07-15 17:13:00,
2013-07-15 10:23:00,66.0,45.0,-100.00,NNE,27,2.0,5.0,46,0.00,,,0.00,351.000000,,2013-07-15 17:23:00,
2013-07-15 10:35:00,66.0,45.0,-100.00,NNE,27,2.0,5.0,46,0.00,,,0.00,351.000000,,2013-07-15 17:35:00,
2013-07-15 10:45:00,66.0,45.0,-100.00,NNE,27,2.0,5.0,46,0.00,,,0.00,351.000000,,2013-07-15 17:45:00,
2013-07-15 10:53:00,73.0,45.0,-100.00,NNE,12,2.0,8.0,37,0.00,,,0.00,924.000000,,2013-07-15 17:53:00,
2013-07-15 11:24:00,73.0,45.0,-100.00,NNE,12,2.0,8.0,37,0.00,,,0.00,924.000000,,2013-07-15 18:24:00,
2013-07-15 11:34:00,73.0,45.0,-100.00,NNE,12,2.0,8.0,37,0.00,,,0.00,924.000000,,2013-07-15 18:34:00,
2013-07-15 11:45:00,73.0,45.0,-100.00,NNE,12,2.0,8.0,37,0.00,,,0.00,924.000000,,2013-07-15 18:45:00,
2013-07-15 11:53:00,76.0,45.0,-100.00,North,353,2.0,9.0,33,0.00,,,0.00,1060.000000,,2013-07-15 18:53:00,
2013-07-15 12:11:00,76.0,45.0,-100.00,North,353,2.0,9.0,33,0.00,,,0.00,1060.000000,,2013-07-15 19:11:00,
2013-07-15 12:24:00,76.0,45.0,-100.00,North,353,2.0,9.0,33,0.00,,,0.00,1060.000000,,2013-07-15 19:24:00,
2013-07-15 12:34:00,76.0,45.0,-100.00,North,353,2.0,9.0,33,0.00,,,0.00,1060.000000,,2013-07-15 19:34:00,
2013-07-15 12:44:00,76.0,45.0,-100.00,North,353,2.0,9.0,33,0.00,,,0.00,1060.000000,,2013-07-15 19:44:00,
2013-07-15 12:53:00,81.0,47.0,-100.00,SW,224,3.0,9.0,30,0.00,,,0.00,1137.000000,,2013-07-15 19:53:00,
2013-07-15 13:24:00,81.0,47.0,-100.00,SW,224,3.0,9.0,30,0.00,,,0.00,1137.000000,,2013-07-15 20:24:00,
2013-07-15 13:34:00,81.0,47.0,-100.00,SW,224,3.0,9.0,30,0.00,,,0.00,1137.000000,,2013-07-15 20:34:00,
2013-07-15 13:43:00,81.0,47.0,-100.00,SW,224,3.0,9.0,30,0.00,,,0.00,1137.000000,,2013-07-15 20:43:00,
2013-07-15 14:12:00,80.0,47.0,-100.00,WNW,297,3.0,10.0,31,0.00,,,0.00,1156.000000,,2013-07-15 21:12:00,
2013-07-15 14:23:00,80.0,47.0,-100.00,WNW,297,3.0,10.0,31,0.00,,,0.00,1156.000000,,2013-07-15 21:23:00,
2013-07-15 14:34:00,80.0,47.0,-100.00,WNW,297,3.0,10.0,31,0.00,,,0.00,1156.000000,,2013-07-15 21:34:00,
2013-07-15 14:53:00,80.0,46.0,-100.00,NNE,30,3.0,10.0,30,0.00,,,-99.99,1118.000000,,2013-07-15 21:53:00,
2013-07-15 15:22:00,80.0,46.0,-100.00,NNE,30,3.0,10.0,30,0.00,,,-99.99,1118.000000,,2013-07-15 22:22:00,
2013-07-15 15:34:00,80.0,46.0,-100.00,NNE,30,3.0,10.0,30,0.00,,,-99.99,1118.000000,,2013-07-15 22:34:00,
2013-07-15 15:43:00,80.0,46.0,-100.00,NNE,30,3.0,10.0,30,0.00,,,-99.99,1118.000000,,2013-07-15 22:43:00,
2013-07-15 15:53:00,80.0,47.0,-100.00,West,276,3.0,10.0,32,0.00,,,0.00,1021.000000,,2013-07-15 22:53:00,
2013-07-15 16:25:00,80.0,47.0,-100.00,West,276,3.0,10.0,32,0.00,,,0.00,1021.000000,,2013-07-15 23:25:00,
2013-07-15 16:34:00,80.0,47.0,-100.00,West,276,3.0,10.0,32,0.00,,,0.00,1021.000000,,2013-07-15 23:34:00,
2013-07-15 16:44:00,80.0,47.0,-100.00,West,276,3.0,10.0,32,0.00,,,0.00,1021.000000,,2013-07-15 23:44:00,
2013-07-15 17:24:00,83.0,50.0,-100.00,North,7,3.0,11.0,32,0.00,,,0.00,876.000000,,2013-07-16 00:24:00,
2013-07-15 17:33:00,83.0,50.0,-100.00,North,7,3.0,11.0,32,0.00,,,0.00,876.000000,,2013-07-16 00:33:00,
2013-07-15 17:43:00,83.0,50.0,-100.00,North,7,3.0,11.0,32,0.00,,,0.00,876.000000,,2013-07-16 00:43:00,
2013-07-15 17:52:00,83.0,50.0,-100.00,North,7,3.0,11.0,32,0.00,,,0.00,876.000000,,2013-07-16 00:52:00,
2013-07-15 17:53:00,81.0,52.0,-100.00,WNW,294,3.0,11.0,36,0.00,,,0.00,687.000000,,2013-07-16 00:53:00,
2013-07-15 18:13:00,81.0,52.0,-100.00,WNW,294,3.0,11.0,36,0.00,,,0.00,687.000000,,2013-07-16 01:13:00,
2013-07-15 18:33:00,81.0,52.0,-100.00,WNW,294,3.0,11.0,36,0.00,,,0.00,687.000000,,2013-07-16 01:33:00,
2013-07-15 18:44:00,81.0,52.0,-100.00,WNW,294,3.0,11.0,36,0.00,,,0.00,687.000000,,2013-07-16 01:44:00,
2013-07-15 18:53:00,78.0,51.0,-100.00,NW,315,3.0,10.0,39,-99.99,,,0.00,474.000000,,2013-07-16 01:53:00,
2013-07-15 19:35:00,78.0,51.0,-100.00,NW,315,3.0,10.0,39,-99.99,,,0.00,474.000000,,2013-07-16 02:35:00,
2013-07-15 19:44:00,78.0,51.0,-100.00,NW,315,3.0,10.0,39,-99.99,,,0.00,474.000000,,2013-07-16 02:44:00,
2013-07-15 19:53:00,74.0,52.0,-100.00,North,353,1.0,6.0,47,0.00,,,0.00,186.000000,,2013-07-16 02:53:00,
2013-07-15 20:13:00,74.0,52.0,-100.00,North,353,1.0,6.0,47,0.00,,,0.00,186.000000,,2013-07-16 03:13:00,
2013-07-15 20:24:00,74.0,52.0,-100.00,North,353,1.0,6.0,47,0.00,,,0.00,186.000000,,2013-07-16 03:24:00,
2013-07-15 20:35:00,74.0,52.0,-100.00,North,353,1.0,6.0,47,0.00,,,0.00,186.000000,,2013-07-16 03:35:00,
2013-07-15 20:44:00,74.0,52.0,-100.00,North,353,1.0,6.0,47,0.00,,,0.00,186.000000,,2013-07-16 03:44:00,